Time;durP1;ratioP1;P1;durP2;ratioP2;P2;SDS_P1;SDS_P2;PMS_P1;PMS_P2;Temp;Humidity;BMP_temperature;BMP_pressure;BME280_temperature;BME280_humidity;BME280_pressure;Samples;Min_cycle;Max_cycle;Signal;HPM_P1;HPM_P2
2024/03/03 00:01:53;;;;;;;8.52;5.47;;;9.20;99.90;;;;;;5069166;28;20040;-64
2024/03/03 00:04:18;;;;;;;9.50;5.53;;;9.20;99.90;;;;;;5028413;28;20047;-66
2024/03/03 00:06:44;;;;;;;9.55;5.78;;;9.20;99.90;;;;;;5067499;28;20051;-64
2024/03/03 00:09:10;;;;;;;10.57;6.18;;;9.20;99.90;;;;;;5061990;28;20041;-64
2024/03/03 00:11:36;;;;;;;12.02;6.18;;;9.20;99.90;;;;;;5068671;28;20049;-64
2024/03/03 00:14:01;;;;;;;11.77;6.50;;;9.20;99.90;;;;;;5050876;28;20052;-63
2024/03/03 00:16:27;;;;;;;8.85;5.97;;;9.30;99.90;;;;;;5066742;28;20477;-64
2024/03/03 00:18:54;;;;;;;12.05;5.82;;;9.30;99.90;;;;;;5068670;28;20048;-66
2024/03/03 00:21:19;;;;;;;10.02;6.43;;;9.30;99.90;;;;;;5068221;28;20039;-63
2024/03/03 00:23:46;;;;;;;11.13;6.20;;;9.30;99.90;;;;;;5069150;28;20505;-64
2024/03/03 00:26:12;;;;;;;10.77;6.07;;;9.30;99.90;;;;;;5068415;28;20078;-65
2024/03/03 00:28:38;;;;;;;9.10;6.22;;;9.40;99.90;;;;;;5050571;28;20060;-64
2024/03/03 00:31:04;;;;;;;11.77;6.15;;;9.40;99.90;;;;;;5068081;28;20101;-64
2024/03/03 00:33:29;;;;;;;10.27;6.20;;;9.30;99.90;;;;;;5065233;28;20037;-64
2024/03/03 00:35:55;;;;;;;11.00;6.63;;;9.40;99.90;;;;;;5033825;28;20049;-65
2024/03/03 00:38:21;;;;;;;12.73;6.60;;;9.40;99.90;;;;;;5068593;28;20029;-64
2024/03/03 00:40:46;;;;;;;10.50;6.28;;;9.30;99.90;;;;;;5063113;28;20675;-64
2024/03/03 00:43:12;;;;;;;15.48;6.88;;;9.40;99.90;;;;;;5068286;28;20093;-64
2024/03/03 00:45:37;;;;;;;10.65;6.53;;;9.40;99.90;;;;;;5068492;28;20110;-65
2024/03/03 00:48:03;;;;;;;14.52;7.03;;;9.40;99.90;;;;;;5061196;28;20119;-64
2024/03/03 00:50:29;;;;;;;10.55;6.60;;;9.40;99.90;;;;;;5033885;28;20076;-63
2024/03/03 00:52:55;;;;;;;15.20;6.90;;;9.40;99.90;;;;;;5068372;28;20055;-64
2024/03/03 00:55:21;;;;;;;10.90;6.63;;;9.40;99.90;;;;;;5049415;28;20131;-64
2024/03/03 00:57:47;;;;;;;11.55;7.10;;;9.40;99.90;;;;;;5068071;28;20493;-64
2024/03/03 01:00:13;;;;;;;12.45;6.88;;;9.40;99.90;;;;;;5066999;28;20048;-64
2024/03/03 01:02:38;;;;;;;13.55;7.38;;;9.40;99.90;;;;;;5063436;28;20124;-64
2024/03/03 01:05:05;;;;;;;10.88;6.70;;;9.50;99.90;;;;;;5067767;28;20128;-65
2024/03/03 01:07:30;;;;;;;12.48;7.03;;;9.40;99.90;;;;;;5067917;28;20040;-65
2024/03/03 01:09:56;;;;;;;11.45;6.82;;;9.40;99.90;;;;;;5049301;28;20039;-66
2024/03/03 01:12:22;;;;;;;11.07;7.05;;;9.40;99.90;;;;;;5067529;28;20342;-63
2024/03/03 01:14:47;;;;;;;10.45;7.18;;;9.40;99.90;;;;;;5066487;28;20093;-63
2024/03/03 01:17:13;;;;;;;10.80;7.03;;;9.40;99.90;;;;;;5062862;28;20052;-64
2024/03/03 01:19:38;;;;;;;13.65;6.78;;;9.40;99.90;;;;;;5048639;28;20478;-66
2024/03/03 01:22:04;;;;;;;13.05;7.15;;;9.40;99.90;;;;;;5067065;28;20047;-64
2024/03/03 01:24:30;;;;;;;14.13;7.60;;;9.40;99.90;;;;;;5062159;28;20039;-63
2024/03/03 01:26:56;;;;;;;10.35;6.68;;;9.40;99.90;;;;;;5065704;28;20066;-64
2024/03/03 01:29:22;;;;;;;10.00;6.70;;;9.50;99.90;;;;;;5066325;28;20074;-63
2024/03/03 01:31:50;;;;;;;13.05;7.68;;;9.40;99.90;;;;;;5067094;28;20068;-63
2024/03/03 01:34:16;;;;;;;11.90;6.90;;;9.50;99.90;;;;;;5063635;28;20053;-63
2024/03/03 01:36:42;;;;;;;12.13;7.15;;;9.50;99.90;;;;;;5067472;28;20063;-63
2024/03/03 01:39:07;;;;;;;13.27;6.82;;;9.40;99.90;;;;;;5064357;28;20033;-64
2024/03/03 01:41:36;;;;;;;11.75;7.00;;;9.50;99.90;;;;;;5061984;28;20041;-63
2024/03/03 01:44:02;;;;;;;11.55;7.13;;;9.40;99.90;;;;;;5059726;28;20068;-64
2024/03/03 01:46:28;;;;;;;10.43;7.22;;;9.50;99.90;;;;;;5065745;28;20071;-65
2024/03/03 01:48:55;;;;;;;11.75;6.90;;;9.40;99.90;;;;;;5066811;28;20453;-64
2024/03/03 01:51:22;;;;;;;11.40;6.97;;;9.40;99.90;;;;;;5053837;28;20123;-64
2024/03/03 01:53:50;;;;;;;10.57;6.72;;;9.50;99.90;;;;;;5064552;28;20055;-66
2024/03/03 01:56:23;;;;;;;11.45;6.97;;;9.40;99.90;;;;;;5065720;28;20044;-64
2024/03/03 01:58:50;;;;;;;11.70;6.75;;;9.40;99.90;;;;;;5047075;28;20032;-64
2024/03/03 02:01:15;;;;;;;13.07;6.97;;;9.40;99.90;;;;;;5065464;28;20048;-68
2024/03/03 02:03:42;;;;;;;13.23;7.55;;;9.50;99.90;;;;;;5066154;28;20037;-64
2024/03/03 02:06:09;;;;;;;13.02;6.85;;;9.50;99.90;;;;;;5062318;28;20041;-64
2024/03/03 02:08:36;;;;;;;12.88;6.75;;;9.50;99.90;;;;;;5066859;28;20052;-64
2024/03/03 02:11:01;;;;;;;11.50;6.70;;;9.40;99.90;;;;;;5065822;28;20043;-64
2024/03/03 02:13:27;;;;;;;12.00;7.28;;;9.40;99.90;;;;;;5069911;28;20033;-64
2024/03/03 02:15:53;;;;;;;10.40;6.63;;;9.50;99.90;;;;;;5064247;28;20123;-64
2024/03/03 02:18:18;;;;;;;15.02;7.38;;;9.40;99.90;;;;;;5066256;28;20048;-65
2024/03/03 02:20:45;;;;;;;13.80;7.05;;;9.40;99.90;;;;;;5060745;28;20037;-64
2024/03/03 02:23:11;;;;;;;11.60;7.10;;;9.40;99.90;;;;;;5063482;28;20032;-64
2024/03/03 02:25:38;;;;;;;15.77;7.30;;;9.40;99.90;;;;;;5059699;28;20051;-66
2024/03/03 02:28:04;;;;;;;12.77;7.22;;;9.40;99.90;;;;;;5065704;28;20122;-64
2024/03/03 02:30:30;;;;;;;11.07;7.70;;;9.40;99.90;;;;;;5065936;28;20105;-66
2024/03/03 02:32:56;;;;;;;11.30;6.78;;;9.40;99.90;;;;;;5066141;28;20595;-65
2024/03/03 02:35:21;;;;;;;11.73;6.97;;;9.40;99.90;;;;;;5058375;28;20036;-64
2024/03/03 02:37:47;;;;;;;11.45;7.05;;;9.40;99.90;;;;;;5066278;28;20477;-64
2024/03/03 02:40:13;;;;;;;12.98;7.57;;;9.30;99.90;;;;;;5065579;28;20151;-66
2024/03/03 02:42:38;;;;;;;12.57;7.35;;;9.40;99.90;;;;;;5047934;28;20048;-65
2024/03/03 02:45:05;;;;;;;11.48;7.95;;;9.30;99.90;;;;;;5065234;28;20043;-64
2024/03/03 02:47:31;;;;;;;12.50;7.40;;;9.40;99.90;;;;;;5066289;28;20044;-64
2024/03/03 02:49:56;;;;;;;11.73;7.38;;;9.40;99.90;;;;;;5063617;28;20043;-65
2024/03/03 02:52:22;;;;;;;12.55;8.15;;;9.30;99.90;;;;;;5066059;28;20404;-64
2024/03/03 02:54:48;;;;;;;13.50;7.55;;;9.30;99.90;;;;;;5066047;28;20036;-63
2024/03/03 02:57:13;;;;;;;14.50;7.40;;;9.30;99.90;;;;;;5065557;28;20056;-65
2024/03/03 02:59:39;;;;;;;12.00;7.55;;;9.30;99.90;;;;;;5066037;28;20034;-67
2024/03/03 03:02:04;;;;;;;13.23;7.97;;;9.30;99.90;;;;;;5047945;28;20114;-64
2024/03/03 03:04:30;;;;;;;14.93;8.55;;;9.30;99.90;;;;;;5066256;28;20078;-64
2024/03/03 03:06:56;;;;;;;11.52;7.90;;;9.40;99.90;;;;;;5065873;28;20040;-67
2024/03/03 03:09:22;;;;;;;11.13;7.20;;;9.30;99.90;;;;;;5054128;28;20068;-65
2024/03/03 03:11:48;;;;;;;12.82;7.93;;;9.30;99.90;;;;;;5065388;28;20094;-66
2024/03/03 03:14:14;;;;;;;14.52;8.15;;;9.30;99.90;;;;;;5054910;28;20036;-66
2024/03/03 03:16:41;;;;;;;12.90;7.68;;;9.30;99.90;;;;;;5056518;28;20111;-65
2024/03/03 03:19:07;;;;;;;11.93;7.90;;;9.20;99.90;;;;;;5061401;28;20067;-66
2024/03/03 03:21:33;;;;;;;13.18;8.63;;;9.20;99.90;;;;;;5069404;28;20032;-65
2024/03/03 03:23:59;;;;;;;12.60;8.25;;;9.10;99.90;;;;;;5069491;28;20037;-64
2024/03/03 03:26:25;;;;;;;13.35;8.18;;;9.10;99.90;;;;;;5069613;28;20032;-64
2024/03/03 03:28:50;;;;;;;13.07;8.60;;;9.10;99.90;;;;;;5067673;28;20044;-65
2024/03/03 03:31:16;;;;;;;13.50;7.97;;;9.10;99.90;;;;;;5066463;28;20040;-66
2024/03/03 03:33:42;;;;;;;12.32;8.10;;;9.10;99.90;;;;;;5064973;28;20050;-65
2024/03/03 03:36:10;;;;;;;16.88;8.48;;;9.00;99.90;;;;;;5067079;28;20389;-64
2024/03/03 03:38:37;;;;;;;12.60;8.10;;;9.00;99.90;;;;;;5070539;28;20040;-67
2024/03/03 03:41:03;;;;;;;15.77;8.75;;;8.90;99.90;;;;;;5066117;28;20039;-65
2024/03/03 03:43:30;;;;;;;16.05;9.02;;;8.90;99.90;;;;;;5053757;28;20033;-63
2024/03/03 03:45:55;;;;;;;14.00;9.02;;;8.80;99.90;;;;;;5070196;28;20040;-66
2024/03/03 03:48:23;;;;;;;15.95;9.40;;;8.80;99.90;;;;;;5063707;28;20047;-65
2024/03/03 03:50:49;;;;;;;15.98;9.48;;;8.70;99.90;;;;;;5064589;28;20041;-66
2024/03/03 03:53:15;;;;;;;14.50;9.57;;;8.70;99.90;;;;;;5069876;28;20405;-63
2024/03/03 03:55:40;;;;;;;15.00;9.30;;;8.70;99.90;;;;;;5058071;28;20036;-66
2024/03/03 03:58:06;;;;;;;14.82;9.38;;;8.70;99.90;;;;;;5065395;28;20118;-66
2024/03/03 04:00:32;;;;;;;14.77;9.23;;;8.60;99.90;;;;;;5069312;28;20069;-66
2024/03/03 04:02:58;;;;;;;15.00;9.48;;;8.60;99.90;;;;;;5051771;28;20470;-66
2024/03/03 04:05:24;;;;;;;16.67;10.20;;;8.60;99.90;;;;;;5069641;28;20036;-65
2024/03/03 04:07:50;;;;;;;14.32;9.15;;;8.60;99.90;;;;;;5067478;28;20502;-65
2024/03/03 04:10:17;;;;;;;18.35;10.23;;;8.60;99.90;;;;;;5069031;28;20040;-64
2024/03/03 04:12:44;;;;;;;17.65;10.50;;;8.60;99.90;;;;;;5051115;28;20631;-64
2024/03/03 04:15:11;;;;;;;16.67;10.10;;;8.60;99.90;;;;;;5051334;28;20048;-65
2024/03/03 04:17:37;;;;;;;16.02;9.75;;;8.60;99.90;;;;;;5069713;28;20041;-66
2024/03/03 04:20:05;;;;;;;16.55;10.25;;;8.60;99.90;;;;;;5068337;28;20070;-65
2024/03/03 04:22:31;;;;;;;18.85;10.55;;;8.50;99.90;;;;;;5069516;28;20043;-66
2024/03/03 04:24:56;;;;;;;17.33;10.75;;;8.50;99.90;;;;;;5068949;28;20059;-66
2024/03/03 04:27:22;;;;;;;18.10;10.40;;;8.50;99.90;;;;;;5068045;28;20051;-66
2024/03/03 04:29:48;;;;;;;23.70;10.90;;;8.50;99.90;;;;;;5068571;28;20409;-65
2024/03/03 04:32:14;;;;;;;18.85;10.93;;;8.50;99.90;;;;;;5062942;28;20182;-66
2024/03/03 04:34:40;;;;;;;16.40;10.75;;;8.50;99.90;;;;;;5069148;28;20033;-65
2024/03/03 04:37:06;;;;;;;16.95;10.93;;;8.50;99.90;;;;;;5062676;28;20476;-67
2024/03/03 04:39:33;;;;;;;17.42;11.27;;;8.50;99.90;;;;;;5061819;28;20037;-64
2024/03/03 04:41:59;;;;;;;18.10;10.70;;;8.50;99.90;;;;;;5068743;28;20033;-66
2024/03/03 04:44:25;;;;;;;16.67;11.07;;;8.50;99.90;;;;;;5068006;28;20051;-65
2024/03/03 04:46:50;;;;;;;16.85;10.88;;;8.40;99.90;;;;;;5066072;28;20032;-65
2024/03/03 04:49:16;;;;;;;18.65;10.65;;;8.50;99.90;;;;;;5065453;28;20128;-65
2024/03/03 04:51:42;;;;;;;16.05;10.55;;;8.40;99.90;;;;;;5062172;28;20036;-64
2024/03/03 04:54:07;;;;;;;18.67;10.70;;;8.40;99.90;;;;;;5066727;28;20497;-64
2024/03/03 04:56:33;;;;;;;17.08;10.48;;;8.40;99.90;;;;;;5068214;28;20479;-64
2024/03/03 04:58:59;;;;;;;18.73;11.80;;;8.40;99.90;;;;;;5062765;28;20089;-64
2024/03/03 05:01:24;;;;;;;16.17;11.10;;;8.40;99.90;;;;;;5067118;28;20044;-67
2024/03/03 05:03:50;;;;;;;15.50;10.88;;;8.40;99.90;;;;;;5068067;28;20409;-66
2024/03/03 05:06:16;;;;;;;17.30;11.13;;;8.40;99.90;;;;;;5049816;28;20605;-65
2024/03/03 05:08:41;;;;;;;17.52;10.98;;;8.40;99.90;;;;;;5068721;28;20032;-66
2024/03/03 05:11:07;;;;;;;18.65;11.18;;;8.40;99.90;;;;;;5067657;28;20045;-66
2024/03/03 05:13:33;;;;;;;18.25;11.35;;;8.40;99.90;;;;;;5067891;28;20063;-66
2024/03/03 05:15:59;;;;;;;19.40;12.35;;;8.40;99.90;;;;;;5065656;28;20497;-65
2024/03/03 05:18:24;;;;;;;17.98;11.15;;;8.40;99.90;;;;;;5067538;28;20036;-65
2024/03/03 05:20:50;;;;;;;18.30;11.65;;;8.30;99.90;;;;;;5066916;28;20116;-66
2024/03/03 05:23:18;;;;;;;17.05;11.70;;;8.40;99.90;;;;;;5064093;28;20036;-66
2024/03/03 05:25:44;;;;;;;16.35;11.73;;;8.30;99.90;;;;;;5061780;28;20048;-65
2024/03/03 05:28:10;;;;;;;17.83;11.80;;;8.30;99.90;;;;;;5067298;28;20036;-66
2024/03/03 05:30:38;;;;;;;17.52;11.57;;;8.30;99.90;;;;;;5061949;28;20036;-65
2024/03/03 05:33:04;;;;;;;18.77;11.77;;;8.30;99.90;;;;;;5067371;28;20041;-65
2024/03/03 05:35:30;;;;;;;19.33;12.13;;;8.30;99.90;;;;;;5067009;28;20076;-64
2024/03/03 05:37:56;;;;;;;18.70;11.98;;;8.30;99.90;;;;;;5067295;28;20070;-65
2024/03/03 05:40:21;;;;;;;20.25;11.15;;;8.30;99.90;;;;;;5058477;28;20037;-63
2024/03/03 05:42:47;;;;;;;17.63;11.70;;;8.30;99.90;;;;;;5066904;28;20036;-63
2024/03/03 05:45:12;;;;;;;19.88;11.70;;;8.30;99.90;;;;;;5067630;28;20154;-64
2024/03/03 05:47:38;;;;;;;18.42;11.52;;;8.30;99.90;;;;;;5063998;28;20037;-64
2024/03/03 05:50:04;;;;;;;19.05;11.43;;;8.30;99.90;;;;;;5065824;28;20432;-64
2024/03/03 05:52:30;;;;;;;19.05;11.95;;;8.30;99.90;;;;;;5064064;28;20660;-64
2024/03/03 05:54:55;;;;;;;16.20;10.63;;;8.30;99.90;;;;;;5061819;28;20396;-64
2024/03/03 05:57:21;;;;;;;20.70;12.85;;;8.40;99.90;;;;;;5066988;28;20436;-63
2024/03/03 05:59:47;;;;;;;19.42;12.00;;;8.30;99.90;;;;;;5067157;28;20389;-63
2024/03/03 06:02:12;;;;;;;18.77;11.98;;;8.30;99.90;;;;;;5059208;28;20028;-66
2024/03/03 06:04:38;;;;;;;16.92;10.85;;;8.30;99.90;;;;;;5048764;28;20045;-64
2024/03/03 06:07:04;;;;;;;20.77;11.73;;;8.30;99.90;;;;;;5066674;28;20488;-65
2024/03/03 06:09:30;;;;;;;20.48;12.15;;;8.30;99.90;;;;;;5066662;28;20043;-64
2024/03/03 06:11:59;;;;;;;16.50;11.15;;;8.30;99.90;;;;;;5061140;28;20037;-63
2024/03/03 06:14:24;;;;;;;18.20;11.65;;;8.30;99.90;;;;;;5041730;28;20040;-64
2024/03/03 06:16:50;;;;;;;17.80;11.45;;;8.30;99.90;;;;;;5066792;28;20133;-63
2024/03/03 06:19:15;;;;;;;18.48;11.13;;;8.30;99.90;;;;;;5048399;28;20713;-66
2024/03/03 06:21:41;;;;;;;20.42;11.68;;;8.30;99.90;;;;;;5066907;28;20035;-65
2024/03/03 06:24:07;;;;;;;18.27;11.25;;;8.30;99.90;;;;;;5066758;28;20424;-67
2024/03/03 06:26:34;;;;;;;17.63;11.73;;;8.40;99.90;;;;;;5066209;28;20467;-66
2024/03/03 06:29:00;;;;;;;20.42;11.18;;;8.40;99.90;;;;;;5063661;28;20402;-65
2024/03/03 06:31:26;;;;;;;20.85;11.52;;;8.40;99.90;;;;;;5066381;28;20047;-64
2024/03/03 06:33:52;;;;;;;17.77;11.57;;;8.40;99.90;;;;;;5063379;28;20032;-63
2024/03/03 06:36:21;;;;;;;17.98;11.00;;;8.40;99.90;;;;;;5066590;28;20445;-65
2024/03/03 06:38:47;;;;;;;17.45;11.13;;;8.40;99.90;;;;;;5066554;28;20036;-65
2024/03/03 06:41:15;;;;;;;17.95;10.98;;;8.40;99.90;;;;;;5066027;28;20032;-64
2024/03/03 06:43:42;;;;;;;18.17;11.52;;;8.40;99.90;;;;;;5066349;28;20394;-63
2024/03/03 06:46:11;;;;;;;19.50;11.60;;;8.40;99.90;;;;;;5060367;28;20037;-65
2024/03/03 06:48:38;;;;;;;19.77;12.23;;;8.40;99.90;;;;;;5066286;28;20036;-63
2024/03/03 06:51:04;;;;;;;22.02;11.38;;;8.40;99.90;;;;;;5050042;28;20060;-64
2024/03/03 06:53:30;;;;;;;16.48;10.85;;;8.40;99.90;;;;;;5068551;28;20032;-64
2024/03/03 06:55:56;;;;;;;18.17;11.13;;;8.40;99.90;;;;;;5066947;28;20048;-67
2024/03/03 06:58:21;;;;;;;16.13;10.60;;;8.40;99.90;;;;;;5067817;28;20040;-65
2024/03/03 07:00:47;;;;;;;15.70;10.60;;;8.50;99.90;;;;;;5064467;28;20036;-62
2024/03/03 07:03:29;;;;;;;15.20;10.43;;;8.50;99.90;;;;;;5069389;28;20500;-62
2024/03/03 07:05:56;;;;;;;16.65;11.00;;;8.50;99.90;;;;;;5048826;28;20048;-62
2024/03/03 07:08:21;;;;;;;17.52;11.02;;;8.50;99.90;;;;;;5062103;28;20051;-63
2024/03/03 07:10:47;;;;;;;18.17;11.57;;;8.50;99.90;;;;;;5069753;28;20032;-62
2024/03/03 07:13:13;;;;;;;17.60;11.35;;;8.50;99.90;;;;;;5052323;28;21599;-62
2024/03/03 07:15:38;;;;;;;18.02;11.40;;;8.50;99.90;;;;;;5070183;28;20427;-64
2024/03/03 07:18:04;;;;;;;18.15;11.27;;;8.50;99.90;;;;;;5051702;28;20123;-62
2024/03/03 07:20:30;;;;;;;18.70;11.50;;;8.50;99.90;;;;;;5051630;28;20040;-63
2024/03/03 07:22:56;;;;;;;20.42;11.90;;;8.50;99.90;;;;;;5070025;28;20224;-66
2024/03/03 07:25:21;;;;;;;19.08;11.40;;;8.60;99.90;;;;;;5068482;28;20550;-62
2024/03/03 07:27:47;;;;;;;17.20;11.10;;;8.50;99.90;;;;;;5069899;28;20115;-64
2024/03/03 07:30:12;;;;;;;17.38;11.82;;;8.50;99.90;;;;;;5068665;28;20036;-63
2024/03/03 07:32:40;;;;;;;19.77;11.63;;;8.50;99.90;;;;;;5069832;28;20029;-62
2024/03/03 07:35:06;;;;;;;21.73;12.07;;;8.60;99.90;;;;;;5069497;28;20469;-62
2024/03/03 07:37:32;;;;;;;18.25;11.90;;;8.60;99.90;;;;;;5051639;28;20086;-62
2024/03/03 07:39:57;;;;;;;18.35;11.45;;;8.60;99.90;;;;;;5069153;28;20032;-62
2024/03/03 07:42:23;;;;;;;18.20;11.05;;;8.60;99.90;;;;;;5069440;28;20043;-66
2024/03/03 07:44:48;;;;;;;18.85;11.15;;;8.60;99.90;;;;;;5069453;28;20040;-62
2024/03/03 07:47:14;;;;;;;17.98;11.30;;;8.60;99.90;;;;;;5069231;28;20072;-63
2024/03/03 07:49:42;;;;;;;18.38;10.85;;;8.70;99.90;;;;;;5069276;28;20382;-64
2024/03/03 07:52:08;;;;;;;16.60;11.00;;;8.70;99.90;;;;;;5068427;28;20044;-64
2024/03/03 07:54:34;;;;;;;20.33;11.43;;;8.70;99.90;;;;;;5069417;28;20044;-64
2024/03/03 07:57:00;;;;;;;17.55;10.85;;;8.70;99.90;;;;;;5068873;28;20094;-64
2024/03/03 07:59:27;;;;;;;19.00;12.02;;;8.80;99.90;;;;;;5068691;28;20040;-62
2024/03/03 08:01:52;;;;;;;17.75;12.00;;;8.70;99.90;;;;;;5064459;28;20032;-64
2024/03/03 08:04:20;;;;;;;17.23;11.48;;;8.80;99.90;;;;;;5065289;28;20028;-64
2024/03/03 08:06:46;;;;;;;18.13;11.70;;;8.80;99.90;;;;;;5069101;28;20047;-62
2024/03/03 08:09:12;;;;;;;17.65;11.23;;;8.70;99.90;;;;;;5068508;28;20053;-63
2024/03/03 08:11:38;;;;;;;18.83;11.48;;;8.80;99.90;;;;;;5068459;28;20107;-62
2024/03/03 08:14:04;;;;;;;19.20;11.27;;;8.80;99.90;;;;;;5068953;28;20165;-65
2024/03/03 08:16:30;;;;;;;18.25;11.77;;;8.80;99.90;;;;;;5069098;28;20074;-64
2024/03/03 08:18:56;;;;;;;19.42;12.10;;;8.90;99.90;;;;;;5065384;28;20424;-65
2024/03/03 08:21:22;;;;;;;18.45;11.35;;;8.90;99.90;;;;;;5068434;28;20076;-65
2024/03/03 08:23:48;;;;;;;17.33;12.18;;;8.90;99.90;;;;;;5062677;28;20467;-62
2024/03/03 08:26:14;;;;;;;18.77;11.98;;;8.90;99.90;;;;;;5067497;28;20047;-62
2024/03/03 08:28:39;;;;;;;18.85;12.10;;;9.00;99.90;;;;;;5068172;28;20041;-62
2024/03/03 08:31:05;;;;;;;17.70;10.80;;;9.10;99.90;;;;;;5067752;28;20378;-63
2024/03/03 08:33:31;;;;;;;17.75;10.60;;;9.10;99.90;;;;;;5069119;28;20041;-64
2024/03/03 08:35:57;;;;;;;18.95;11.50;;;9.10;99.90;;;;;;5061330;28;20075;-63
2024/03/03 08:38:22;;;;;;;16.60;10.10;;;9.20;99.90;;;;;;5068647;28;20507;-64
2024/03/03 08:40:48;;;;;;;16.67;11.30;;;9.20;99.90;;;;;;5063360;28;20028;-66
2024/03/03 08:43:13;;;;;;;18.38;11.30;;;9.30;99.90;;;;;;5067158;28;20086;-65
2024/03/03 08:45:39;;;;;;;16.05;10.50;;;9.20;99.90;;;;;;5068032;28;20062;-64
2024/03/03 08:48:05;;;;;;;18.30;11.18;;;9.30;99.90;;;;;;5068079;28;20036;-64
2024/03/03 08:50:31;;;;;;;17.75;10.98;;;9.30;99.90;;;;;;5067717;28;20044;-64
2024/03/03 08:52:57;;;;;;;16.15;10.38;;;9.30;99.90;;;;;;5043107;28;20448;-64
2024/03/03 08:55:23;;;;;;;17.17;11.00;;;9.40;99.90;;;;;;5049754;28;20048;-65
2024/03/03 08:57:49;;;;;;;18.15;10.75;;;9.40;99.90;;;;;;5068092;28;21000;-65
2024/03/03 09:00:15;;;;;;;17.25;10.60;;;9.40;99.90;;;;;;5067429;28;20123;-65
2024/03/03 09:02:41;;;;;;;16.65;11.38;;;9.40;99.90;;;;;;5065569;28;20028;-65
2024/03/03 09:05:08;;;;;;;16.40;10.55;;;9.40;99.90;;;;;;5065767;28;20166;-64
2024/03/03 09:07:34;;;;;;;18.63;10.82;;;9.40;99.90;;;;;;5067595;28;20051;-65
2024/03/03 09:10:00;;;;;;;16.88;10.50;;;9.40;99.90;;;;;;5066981;28;20085;-65
2024/03/03 09:12:26;;;;;;;20.20;11.75;;;9.50;99.90;;;;;;5049509;28;20504;-65
2024/03/03 09:14:54;;;;;;;15.75;11.05;;;9.50;99.90;;;;;;5067518;28;20123;-65
2024/03/03 09:17:20;;;;;;;16.92;10.70;;;9.60;99.90;;;;;;5061960;28;20507;-65
2024/03/03 09:19:45;;;;;;;16.60;10.52;;;9.60;99.90;;;;;;5066824;28;20036;-65
2024/03/03 09:22:12;;;;;;;17.55;10.73;;;9.70;99.90;;;;;;5067377;28;20536;-65
2024/03/03 09:24:40;;;;;;;16.40;10.52;;;9.70;99.90;;;;;;5060892;28;20036;-65
2024/03/03 09:27:06;;;;;;;16.75;11.10;;;9.70;99.90;;;;;;5067382;28;20382;-65
2024/03/03 09:29:33;;;;;;;18.50;11.38;;;9.80;99.90;;;;;;5066844;28;20079;-65
2024/03/03 09:31:59;;;;;;;18.35;11.80;;;9.90;99.90;;;;;;5066991;28;20145;-65
2024/03/03 09:34:24;;;;;;;18.27;12.00;;;9.90;99.90;;;;;;5049285;28;20040;-65
2024/03/03 09:36:50;;;;;;;18.17;10.98;;;10.00;99.90;;;;;;5065684;28;20459;-64
2024/03/03 09:39:16;;;;;;;17.33;11.68;;;10.00;99.90;;;;;;5065989;28;20218;-64
2024/03/03 09:41:43;;;;;;;18.33;12.20;;;10.00;99.90;;;;;;5049158;28;20032;-65
2024/03/03 09:44:17;;;;;;;20.70;12.10;;;10.10;99.90;;;;;;5066710;28;20036;-64
2024/03/03 09:46:44;;;;;;;16.40;11.45;;;10.10;99.90;;;;;;5067152;28;20032;-64
2024/03/03 09:49:18;;;;;;;16.48;11.52;;;10.10;99.90;;;;;;5063821;28;20087;-64
2024/03/03 09:51:48;;;;;;;20.15;12.13;;;10.20;99.90;;;;;;5066620;28;20044;-65
2024/03/03 09:54:16;;;;;;;19.80;12.30;;;10.20;99.90;;;;;;5061369;28;20041;-65
2024/03/03 09:56:44;;;;;;;18.77;11.85;;;10.30;99.90;;;;;;5066542;28;20037;-65
2024/03/03 09:59:10;;;;;;;18.27;12.05;;;10.40;99.90;;;;;;5066785;28;20524;-65
2024/03/03 10:01:39;;;;;;;17.38;11.73;;;10.40;99.90;;;;;;5066416;28;20040;-65
2024/03/03 10:04:06;;;;;;;19.77;12.68;;;10.50;99.90;;;;;;5046451;28;20359;-65
2024/03/03 10:06:37;;;;;;;14.98;10.48;;;10.50;99.90;;;;;;5066680;28;20471;-65
2024/03/03 10:09:05;;;;;;;16.40;11.20;;;10.60;99.90;;;;;;5066395;28;20394;-65
2024/03/03 10:11:32;;;;;;;16.90;11.52;;;10.60;99.90;;;;;;5066323;28;20046;-65
2024/03/03 10:13:58;;;;;;;17.60;11.60;;;10.80;99.90;;;;;;5066498;28;20382;-65
2024/03/03 10:16:25;;;;;;;17.35;11.27;;;10.70;99.90;;;;;;5065761;28;20055;-64
2024/03/03 10:19:01;;;;;;;16.35;11.23;;;10.70;99.90;;;;;;5062636;28;20628;-65
2024/03/03 10:21:34;;;;;;;19.83;12.43;;;10.70;99.90;;;;;;5059073;28;20032;-65
2024/03/03 10:24:27;;;;;;;16.60;11.35;;;10.80;99.90;;;;;;5066455;28;20123;-65
2024/03/03 10:26:54;;;;;;;17.48;11.80;;;10.80;99.90;;;;;;5062855;28;20059;-65
2024/03/03 10:29:21;;;;;;;21.33;11.93;;;10.90;99.90;;;;;;5065777;28;20055;-65
2024/03/03 10:31:48;;;;;;;19.58;11.60;;;11.00;99.90;;;;;;5066666;28;20044;-65
2024/03/03 10:34:18;;;;;;;18.95;12.45;;;11.10;99.90;;;;;;5065514;28;20328;-65
2024/03/03 10:36:44;;;;;;;19.02;11.68;;;11.30;99.90;;;;;;5066719;28;20045;-65
2024/03/03 10:39:11;;;;;;;18.60;11.55;;;11.40;99.90;;;;;;5065772;28;20039;-64
2024/03/03 10:41:37;;;;;;;18.30;12.13;;;11.60;99.90;;;;;;5065796;28;20037;-64
2024/03/03 10:44:04;;;;;;;17.95;11.57;;;11.70;99.90;;;;;;5058285;28;20049;-65
2024/03/03 10:46:30;;;;;;;17.65;11.52;;;11.90;99.90;;;;;;5066219;28;20040;-65
2024/03/03 10:48:56;;;;;;;15.77;11.40;;;12.00;99.90;;;;;;5065187;28;20489;-64
2024/03/03 10:51:22;;;;;;;16.42;11.35;;;12.30;99.90;;;;;;5058010;28;20035;-65
2024/03/03 10:53:52;;;;;;;17.65;11.90;;;12.40;99.90;;;;;;5062910;28;20557;-65
2024/03/03 10:56:19;;;;;;;16.60;11.43;;;12.80;99.90;;;;;;5058033;28;20123;-65
2024/03/03 10:58:47;;;;;;;17.08;11.57;;;13.00;99.90;;;;;;5065801;28;20455;-64
2024/03/03 11:01:16;;;;;;;16.10;11.52;;;13.10;99.90;;;;;;5065845;28;20114;-65
2024/03/03 11:03:48;;;;;;;15.80;11.30;;;13.30;99.90;;;;;;5066198;28;20086;-65
2024/03/03 11:06:15;;;;;;;15.98;11.80;;;13.40;99.90;;;;;;5066501;28;20508;-65
2024/03/03 11:08:49;;;;;;;15.45;11.15;;;13.50;99.90;;;;;;5065898;28;20107;-63
2024/03/03 11:11:19;;;;;;;15.48;11.48;;;13.50;99.90;;;;;;5065841;28;20037;-65
2024/03/03 11:13:52;;;;;;;13.98;10.73;;;13.60;99.90;;;;;;5066154;28;20045;-63
2024/03/03 11:16:18;;;;;;;15.32;10.75;;;13.60;99.90;;;;;;5065597;28;20466;-65
2024/03/03 11:18:49;;;;;;;17.10;10.80;;;13.50;99.90;;;;;;5065859;28;20082;-65
2024/03/03 11:21:21;;;;;;;14.80;10.70;;;13.50;99.90;;;;;;5065337;28;20075;-65
2024/03/03 11:23:58;;;;;;;16.55;11.93;;;13.40;99.90;;;;;;5066269;28;20048;-65
2024/03/03 11:26:30;;;;;;;16.85;11.55;;;13.30;99.90;;;;;;5059450;28;20037;-65
2024/03/03 11:28:57;;;;;;;;;;;13.30;99.90;;;;;;5056488;28;20040;-63
2024/03/03 11:31:24;;;;;;;14.90;11.05;;;13.30;99.90;;;;;;5065533;28;19920;-65
2024/03/03 11:33:54;;;;;;;18.60;11.98;;;13.30;99.90;;;;;;5065013;28;20557;-64
2024/03/03 11:36:21;;;;;;;16.73;10.52;;;13.40;99.90;;;;;;5066709;28;20612;-65
2024/03/03 11:38:47;;;;;;;17.40;12.00;;;13.60;99.90;;;;;;5069213;28;20442;-65
2024/03/03 11:41:17;;;;;;;16.30;11.70;;;13.70;99.90;;;;;;5069143;28;20558;-65
2024/03/03 11:43:44;;;;;;;17.52;11.85;;;13.70;99.90;;;;;;5068902;28;20211;-65
2024/03/03 11:46:10;;;;;;;16.15;11.93;;;13.80;99.90;;;;;;5068903;28;20413;-65
2024/03/03 11:48:40;;;;;;;16.77;11.90;;;13.90;99.90;;;;;;5068941;28;20051;-66
2024/03/03 11:51:29;;;;;;;16.15;11.80;;;14.00;99.90;;;;;;5066228;28;20036;-65
2024/03/03 11:54:05;;;;;;;14.80;10.20;;;14.10;99.90;;;;;;5068844;28;20378;-65
2024/03/03 11:56:31;;;;;;;16.17;11.52;;;14.10;99.90;;;;;;5062551;28;20097;-65
2024/03/03 11:59:00;;;;;;;15.38;10.60;;;14.20;99.90;;;;;;5068266;28;20032;-65
2024/03/03 12:01:31;;;;;;;17.55;11.15;;;14.30;99.90;;;;;;5061635;28;20075;-64
2024/03/03 12:03:59;;;;;;;15.18;10.75;;;14.20;99.90;;;;;;5050429;28;20044;-65
2024/03/03 12:06:27;;;;;;;17.75;11.98;;;14.30;99.90;;;;;;5069006;28;20044;-65
2024/03/03 12:08:56;;;;;;;15.10;10.63;;;14.20;99.90;;;;;;5068375;28;20094;-64
2024/03/03 12:11:22;;;;;;;18.60;12.00;;;14.20;99.90;;;;;;5068256;28;20040;-64
2024/03/03 12:13:58;;;;;;;16.75;11.48;;;14.20;99.90;;;;;;5068816;28;20040;-63
2024/03/03 12:16:23;;;;;;;16.98;11.55;;;14.20;99.90;;;;;;5063816;28;20044;-64
2024/03/03 12:18:49;;;;;;;15.65;11.38;;;14.20;99.90;;;;;;5061799;28;20033;-64
2024/03/03 12:21:16;;;;;;;14.90;10.95;;;14.30;99.90;;;;;;5068163;28;20094;-66
2024/03/03 12:23:42;;;;;;;16.20;11.40;;;14.30;99.90;;;;;;5068129;28;20040;-66
2024/03/03 12:26:09;;;;;;;14.45;10.65;;;14.40;99.90;;;;;;5068122;28;20040;-63
2024/03/03 12:28:35;;;;;;;18.40;10.70;;;14.30;99.90;;;;;;5064810;28;20115;-65
2024/03/03 12:31:01;;;;;;;16.52;10.85;;;14.40;99.90;;;;;;5046901;28;20128;-65
2024/03/03 12:33:28;;;;;;;15.88;11.15;;;14.30;99.90;;;;;;5050399;28;20055;-63
2024/03/03 12:35:53;;;;;;;18.10;11.27;;;14.40;99.90;;;;;;5067765;28;20052;-64